createdAt,value
2023-04-27T00:00:29.560Z,3.40
2023-04-27T00:03:08.682Z,2.87
2023-04-27T00:05:42.126Z,2.70
2023-04-27T00:08:28.304Z,3.27
2023-04-27T00:11:14.883Z,2.90
2023-04-27T00:13:58.438Z,2.70
2023-04-27T00:16:46.494Z,2.97
2023-04-27T00:19:17.249Z,2.80
2023-04-27T00:22:00.652Z,2.80
2023-04-27T00:24:34.368Z,3.00
2023-04-27T00:27:13.900Z,3.00
2023-04-27T00:29:54.815Z,2.90
2023-04-27T00:32:29.835Z,3.17
2023-04-27T00:35:19.408Z,3.27
2023-04-27T00:37:59.661Z,3.47
2023-04-27T00:40:58.136Z,2.40
2023-04-27T00:44:08.206Z,3.30
2023-04-27T00:46:43.344Z,2.40
2023-04-27T00:49:27.077Z,2.80
2023-04-27T00:52:14.148Z,2.50
2023-04-27T00:55:02.347Z,2.70
2023-04-27T00:57:56.788Z,2.80
2023-04-27T01:00:43.676Z,2.70
2023-04-27T01:03:32.353Z,2.43
2023-04-27T01:06:03.494Z,2.50
2023-04-27T01:08:37.009Z,2.60
2023-04-27T01:11:43.218Z,3.00
2023-04-27T01:14:15.309Z,2.77
2023-04-27T01:17:14.474Z,2.80
2023-04-27T01:19:56.994Z,2.97
2023-04-27T01:22:39.405Z,3.20
2023-04-27T01:25:20.440Z,3.30
2023-04-27T01:27:55.745Z,3.10
2023-04-27T01:30:28.922Z,3.07
2023-04-27T01:33:15.193Z,2.83
2023-04-27T01:35:54.191Z,3.07
2023-04-27T01:38:29.704Z,2.97
2023-04-27T01:41:40.751Z,2.50
2023-04-27T01:44:13.690Z,2.63
2023-04-27T01:46:54.543Z,2.50
2023-04-27T01:49:37.689Z,2.50
2023-04-27T01:52:23.355Z,3.20
2023-04-27T01:55:11.757Z,2.57
2023-04-27T01:58:19.288Z,2.73
2023-04-27T02:00:53.911Z,2.60
2023-04-27T02:03:43.581Z,2.60
2023-04-27T02:06:34.270Z,2.50
2023-04-27T02:09:44.479Z,2.70
2023-04-27T02:12:21.198Z,3.10
2023-04-27T02:15:36.042Z,2.60
2023-04-27T02:18:14.671Z,2.90
2023-04-27T02:20:57.446Z,2.60
2023-04-27T02:23:38.204Z,2.40
2023-04-27T02:26:20.631Z,2.23
2023-04-27T02:29:00.311Z,2.50
2023-04-27T02:31:41.713Z,2.33
2023-04-27T02:34:20.435Z,2.80
2023-04-27T02:37:06.236Z,2.70
2023-04-27T02:39:37.498Z,2.57
2023-04-27T02:42:10.225Z,2.83
2023-04-27T02:45:05.265Z,2.40
2023-04-27T02:47:42.946Z,2.60
2023-04-27T02:50:43.054Z,2.73
2023-04-27T02:53:22.247Z,2.73
2023-04-27T02:55:53.235Z,2.60
2023-04-27T02:58:38.300Z,3.00
2023-04-27T03:01:44.183Z,2.57
2023-04-27T03:04:40.594Z,2.27
2023-04-27T03:07:17.120Z,2.17
2023-04-27T03:10:03.400Z,3.00
2023-04-27T03:12:46.383Z,2.57
2023-04-27T03:15:19.577Z,2.70
2023-04-27T03:18:15.730Z,2.67
2023-04-27T03:21:14.515Z,2.60
2023-04-27T03:24:11.701Z,2.30
2023-04-27T03:26:46.734Z,2.60
2023-04-27T03:29:32.524Z,2.40
2023-04-27T03:32:20.095Z,2.40
2023-04-27T03:35:03.759Z,2.27
2023-04-27T03:37:46.577Z,2.67
2023-04-27T03:40:31.532Z,2.60
2023-04-27T03:43:05.242Z,2.63
2023-04-27T03:45:48.643Z,2.60
2023-04-27T03:48:41.737Z,2.57
2023-04-27T03:51:16.939Z,2.67
2023-04-27T03:54:24.645Z,2.87
2023-04-27T03:57:05.004Z,2.67
2023-04-27T04:00:03.294Z,2.70
2023-04-27T04:02:43.301Z,2.80
2023-04-27T04:05:31.730Z,2.70
2023-04-27T04:08:10.578Z,2.73
2023-04-27T04:11:09.621Z,2.50
2023-04-27T04:14:03.014Z,2.73
2023-04-27T04:16:35.826Z,2.80
2023-04-27T04:19:12.353Z,3.10
2023-04-27T04:21:44.495Z,3.17
2023-04-27T04:24:26.608Z,2.70
2023-04-27T04:27:27.690Z,2.67
2023-04-27T04:30:12.142Z,2.63
2023-04-27T04:32:55.256Z,3.10
2023-04-27T04:35:41.982Z,2.90
2023-04-27T04:38:24.021Z,3.20
2023-04-27T04:41:08.704Z,2.93
2023-04-27T04:43:51.783Z,2.80
2023-04-27T04:46:26.289Z,3.30
2023-04-27T04:49:15.905Z,3.37
2023-04-27T04:52:09.213Z,3.13
2023-04-27T04:54:43.756Z,3.10
2023-04-27T04:57:25.298Z,3.00
2023-04-27T05:00:14.195Z,3.50
2023-04-27T05:02:47.693Z,3.17
2023-04-27T05:05:24.079Z,3.10
2023-04-27T05:07:55.815Z,3.60
2023-04-27T05:10:37.713Z,3.10
2023-04-27T05:13:28.286Z,3.10
2023-04-27T05:16:27.268Z,2.97
2023-04-27T05:18:58.193Z,3.10
2023-04-27T05:21:46.436Z,3.20
2023-04-27T05:24:29.843Z,2.97
2023-04-27T05:27:13.596Z,3.10
2023-04-27T05:30:06.486Z,3.03
2023-04-27T05:33:02.277Z,3.07
2023-04-27T05:35:42.713Z,3.10
2023-04-27T05:38:17.916Z,2.90
2023-04-27T05:41:04.358Z,3.20
2023-04-27T05:43:45.044Z,9.90
2023-04-27T05:46:32.213Z,15.20
2023-04-27T05:49:31.237Z,13.57
2023-04-27T05:52:13.710Z,14.60
2023-04-27T05:54:48.972Z,23.57
2023-04-27T05:57:42.021Z,12.27
2023-04-27T06:00:39.893Z,4.67
2023-04-27T06:03:33.985Z,4.20
2023-04-27T06:06:20.174Z,4.00
2023-04-27T06:09:17.959Z,4.00
2023-04-27T06:12:00.997Z,3.80
2023-04-27T06:14:42.615Z,3.83
2023-04-27T06:17:37.903Z,3.53
2023-04-27T06:20:18.082Z,3.73
2023-04-27T06:23:12.025Z,3.47
2023-04-27T06:26:02.508Z,3.23
2023-04-27T06:28:44.829Z,3.27
2023-04-27T06:31:21.698Z,3.30
2023-04-27T06:33:54.235Z,3.70
2023-04-27T06:36:44.547Z,6.37
2023-04-27T06:39:24.484Z,11.30
2023-04-27T06:42:09.191Z,8.80
2023-04-27T06:44:52.572Z,10.97
2023-04-27T06:47:50.045Z,8.37
2023-04-27T06:50:34.800Z,5.43
2023-04-27T06:53:18.083Z,4.93
2023-04-27T06:56:09.098Z,4.50
2023-04-27T06:58:40.584Z,4.47
2023-04-27T07:01:22.975Z,3.73
2023-04-27T07:04:23.008Z,3.80
2023-04-27T07:06:59.377Z,3.43
2023-04-27T07:09:40.307Z,3.03
2023-04-27T07:12:23.250Z,3.40
2023-04-27T07:14:55.728Z,3.07
2023-04-27T07:17:32.924Z,2.80
2023-04-27T07:20:13.821Z,3.23
2023-04-27T07:22:45.716Z,3.10
2023-04-27T07:25:17.217Z,3.17
2023-04-27T07:28:17.459Z,2.80
2023-04-27T07:31:24.910Z,2.73
2023-04-27T07:34:26.036Z,3.00
2023-04-27T07:37:08.512Z,2.80
2023-04-27T07:39:53.576Z,3.03
2023-04-27T07:42:25.958Z,3.03
2023-04-27T07:45:13.950Z,2.67
2023-04-27T07:48:03.349Z,2.87
2023-04-27T07:50:37.138Z,2.80
2023-04-27T07:53:09.618Z,2.70
2023-04-27T07:55:58.422Z,2.90
2023-04-27T07:58:42.368Z,2.60
2023-04-27T08:01:33.718Z,2.70
2023-04-27T08:04:34.599Z,2.80
2023-04-27T08:07:20.069Z,2.70
2023-04-27T08:10:20.068Z,3.10
2023-04-27T08:13:16.260Z,2.70
2023-04-27T08:16:00.794Z,2.50
2023-04-27T08:19:10.459Z,2.50
2023-04-27T08:21:42.191Z,3.20
2023-04-27T08:24:27.040Z,2.93
2023-04-27T08:27:03.827Z,2.60
2023-04-27T08:30:12.130Z,2.83
2023-04-27T08:32:51.119Z,3.33
2023-04-27T08:35:54.009Z,3.07
2023-04-27T08:38:54.804Z,3.30
2023-04-27T08:41:45.884Z,3.50
2023-04-27T08:44:34.570Z,3.77
2023-04-27T08:47:11.462Z,3.53
2023-04-27T08:49:51.846Z,3.47
2023-04-27T08:52:56.317Z,3.27
2023-04-27T08:55:38.513Z,3.17
2023-04-27T08:58:09.209Z,3.20
2023-04-27T09:00:44.179Z,2.97
2023-04-27T09:03:27.329Z,3.33
2023-04-27T09:06:11.277Z,3.40
2023-04-27T09:09:07.451Z,3.20
2023-04-27T09:12:00.270Z,3.50
2023-04-27T09:15:16.563Z,3.50
2023-04-27T09:17:57.819Z,3.27
2023-04-27T09:20:48.652Z,3.50
2023-04-27T09:23:47.327Z,3.10
2023-04-27T09:26:32.093Z,3.30
2023-04-27T09:29:06.757Z,3.50
2023-04-27T09:31:43.444Z,3.30
2023-04-27T09:34:33.769Z,3.73
2023-04-27T09:37:20.184Z,3.93
2023-04-27T09:40:01.025Z,3.37
2023-04-27T09:42:54.945Z,3.23
2023-04-27T09:46:20.586Z,4.50
2023-04-27T09:48:53.366Z,3.63
2023-04-27T09:51:25.211Z,4.20
2023-04-27T09:54:08.090Z,3.53
2023-04-27T09:56:58.394Z,3.83
2023-04-27T10:00:11.351Z,3.10
2023-04-27T10:03:05.194Z,3.13
2023-04-27T10:06:08.595Z,3.47
2023-04-27T10:08:46.466Z,3.30
2023-04-27T10:11:20.263Z,3.50
2023-04-27T10:13:57.172Z,3.50
2023-04-27T10:16:56.890Z,3.50
2023-04-27T10:19:39.358Z,3.57
2023-04-27T10:22:25.214Z,3.17
2023-04-27T10:25:04.123Z,3.17
2023-04-27T10:27:46.712Z,3.47
2023-04-27T10:30:23.537Z,3.73
2023-04-27T10:33:06.179Z,2.63
2023-04-27T10:35:40.215Z,3.00
2023-04-27T10:38:34.239Z,3.57
2023-04-27T10:41:08.447Z,2.90
2023-04-27T10:43:54.742Z,2.90
2023-04-27T10:46:49.472Z,3.40
2023-04-27T10:49:36.733Z,3.20
2023-04-27T10:52:33.637Z,3.27
2023-04-27T10:55:20.663Z,3.37
2023-04-27T10:58:04.481Z,3.20
2023-04-27T11:00:50.374Z,3.97
2023-04-27T11:03:23.564Z,3.70
2023-04-27T11:06:13.722Z,3.80
2023-04-27T11:09:06.872Z,3.57
2023-04-27T11:12:13.884Z,3.40
2023-04-27T11:14:46.363Z,3.90
2023-04-27T11:17:32.081Z,3.37
2023-04-27T11:20:39.351Z,3.40
2023-04-27T11:23:24.269Z,3.20
2023-04-27T11:25:55.689Z,3.93
2023-04-27T11:28:29.806Z,3.20
2023-04-27T11:31:33.662Z,3.60
2023-04-27T11:34:23.647Z,3.33
2023-04-27T11:39:58.953Z,3.50
2023-04-27T11:42:31.926Z,3.03
2023-04-27T11:45:28.581Z,3.23
2023-04-27T11:48:13.835Z,3.03
2023-04-27T11:50:51.383Z,3.07
2023-04-27T11:53:43.912Z,2.33
2023-04-27T11:56:45.457Z,3.10
2023-04-27T11:59:26.944Z,2.80
2023-04-27T12:02:20.639Z,2.93
2023-04-27T12:05:13.132Z,3.00
2023-04-27T12:07:58.662Z,2.90
2023-04-27T12:10:31.541Z,2.67
2023-04-27T12:13:42.759Z,2.60
2023-04-27T12:16:32.362Z,2.50
2023-04-27T12:19:17.066Z,2.97
2023-04-27T12:22:09.999Z,2.83
2023-04-27T12:25:02.397Z,2.43
2023-04-27T12:27:44.394Z,2.53
2023-04-27T12:30:18.956Z,2.40
2023-04-27T12:33:14.323Z,2.13
2023-04-27T12:35:44.977Z,2.50
2023-04-27T12:38:34.453Z,2.60
2023-04-27T12:41:07.890Z,2.57
2023-04-27T12:43:53.947Z,2.03
2023-04-27T12:47:02.466Z,2.30
2023-04-27T12:49:43.309Z,2.10
2023-04-27T12:52:21.302Z,1.80
2023-04-27T12:55:24.844Z,1.80
2023-04-27T12:58:10.772Z,1.90
2023-04-27T13:00:55.041Z,2.00
2023-04-27T13:03:39.409Z,2.00
2023-04-27T13:06:19.776Z,1.87
2023-04-27T13:08:50.218Z,2.30
2023-04-27T13:11:33.734Z,2.57
2023-04-27T13:14:15.675Z,2.20
2023-04-27T13:16:54.359Z,2.20
2023-04-27T13:19:28.039Z,2.00
2023-04-27T13:22:05.851Z,2.40
2023-04-27T13:24:47.849Z,2.23
2023-04-27T13:27:59.406Z,1.97
2023-04-27T13:30:40.344Z,1.97
2023-04-27T13:33:24.017Z,2.23
2023-04-27T13:36:18.704Z,2.27
2023-04-27T13:39:09.467Z,1.83
2023-04-27T13:41:45.929Z,2.17
2023-04-27T13:44:35.160Z,2.00
2023-04-27T13:47:14.817Z,1.90
2023-04-27T13:49:54.214Z,2.40
2023-04-27T13:52:34.551Z,2.43
2023-04-27T13:55:07.222Z,2.40
2023-04-27T13:57:53.599Z,2.20
2023-04-27T14:00:33.703Z,2.10
2023-04-27T14:03:21.327Z,2.40
2023-04-27T14:06:02.650Z,2.40
2023-04-27T14:09:01.721Z,2.20
2023-04-27T14:12:12.528Z,2.70
2023-04-27T14:14:47.784Z,2.80
2023-04-27T14:17:37.342Z,2.50
2023-04-27T14:20:31.294Z,2.60
2023-04-27T14:23:12.402Z,2.67
2023-04-27T14:25:47.550Z,2.70
2023-04-27T14:28:24.273Z,3.00
2023-04-27T14:30:59.132Z,2.40
2023-04-27T14:33:42.616Z,2.80
2023-04-27T14:36:16.968Z,3.83
2023-04-27T14:39:04.471Z,2.97
2023-04-27T14:41:46.843Z,3.30
2023-04-27T14:44:19.643Z,3.70
2023-04-27T14:47:15.114Z,2.97
2023-04-27T14:50:20.003Z,3.80
2023-04-27T14:53:14.649Z,3.00
2023-04-27T14:55:58.734Z,2.90
2023-04-27T14:58:56.004Z,3.93
2023-04-27T15:01:38.299Z,3.33
2023-04-27T15:04:15.731Z,3.60
2023-04-27T15:06:56.307Z,3.00
2023-04-27T15:09:35.992Z,3.47
2023-04-27T15:12:27.635Z,3.03
2023-04-27T15:15:51.306Z,3.20
2023-04-27T15:18:33.380Z,3.00
2023-04-27T15:21:06.808Z,3.00
2023-04-27T15:23:48.642Z,3.10
2023-04-27T15:26:57.548Z,2.97
2023-04-27T15:29:39.068Z,3.43
2023-04-27T15:32:31.087Z,3.10
2023-04-27T15:35:23.786Z,2.83
2023-04-27T15:37:56.790Z,13.57
2023-04-27T15:40:54.616Z,3.77
2023-04-27T15:43:35.125Z,2.80
2023-04-27T15:46:06.831Z,2.70
2023-04-27T15:49:00.385Z,15.97
2023-04-27T15:51:38.022Z,6.53
2023-04-27T15:54:45.818Z,3.30
2023-04-27T15:57:20.487Z,3.00
2023-04-27T16:00:22.701Z,4.00
2023-04-27T16:03:32.837Z,3.27
2023-04-27T16:06:19.050Z,2.90
2023-04-27T16:08:51.222Z,2.57
2023-04-27T16:11:25.891Z,2.50
2023-04-27T16:14:08.056Z,3.00
2023-04-27T16:16:40.485Z,4.50
2023-04-27T16:19:13.097Z,3.17
2023-04-27T16:21:55.830Z,2.93
2023-04-27T16:24:40.486Z,2.97
2023-04-27T16:27:25.310Z,2.40
2023-04-27T16:30:22.525Z,2.53
2023-04-27T16:33:12.004Z,6.80
2023-04-27T16:35:49.957Z,3.63
2023-04-27T16:38:35.431Z,3.00
2023-04-27T16:41:22.469Z,2.60
2023-04-27T16:44:03.475Z,3.03
2023-04-27T16:46:54.488Z,2.73
2023-04-27T16:49:38.158Z,9.53
2023-04-27T16:52:29.887Z,2.70
2023-04-27T16:55:16.425Z,2.10
2023-04-27T16:57:50.504Z,2.10
2023-04-27T17:00:42.951Z,2.00
2023-04-27T17:03:23.670Z,2.30
2023-04-27T17:06:17.885Z,2.10
2023-04-27T17:09:00.547Z,2.00
2023-04-27T17:11:58.668Z,2.10
2023-04-27T17:14:35.716Z,2.20
2023-04-27T17:17:18.996Z,2.37
2023-04-27T17:20:06.806Z,2.30
2023-04-27T17:22:53.071Z,2.53
2023-04-27T17:25:24.344Z,2.40
2023-04-27T17:28:19.718Z,2.07
2023-04-27T17:31:02.094Z,2.10
2023-04-27T17:33:53.779Z,2.10
2023-04-27T17:36:30.495Z,2.73
2023-04-27T17:39:15.037Z,2.30
2023-04-27T17:41:57.392Z,2.27
2023-04-27T17:44:30.014Z,2.40
2023-04-27T17:47:25.381Z,2.10
2023-04-27T17:50:16.570Z,2.27
2023-04-27T17:52:55.213Z,2.40
2023-04-27T17:55:37.323Z,2.60
2023-04-27T17:58:22.104Z,2.30
2023-04-27T18:00:55.078Z,2.47
2023-04-27T18:03:29.262Z,2.50
2023-04-27T18:06:27.554Z,2.23
2023-04-27T18:09:18.023Z,2.40
2023-04-27T18:12:14.585Z,2.57
2023-04-27T18:14:54.423Z,2.43
2023-04-27T18:17:43.002Z,2.73
2023-04-27T18:20:45.340Z,2.30
2023-04-27T18:23:19.891Z,2.60
2023-04-27T18:26:17.051Z,2.40
2023-04-27T18:28:49.009Z,2.27
2023-04-27T18:31:42.157Z,2.80
2023-04-27T18:34:37.494Z,2.60
2023-04-27T18:37:08.592Z,2.43
2023-04-27T18:39:50.392Z,2.60
2023-04-27T18:42:24.515Z,2.30
2023-04-27T18:45:00.756Z,2.50
2023-04-27T18:47:49.247Z,2.47
2023-04-27T18:50:35.612Z,2.63
2023-04-27T18:53:21.772Z,2.37
2023-04-27T18:55:52.138Z,2.77
2023-04-27T18:58:26.531Z,2.80
2023-04-27T19:01:04.886Z,2.70
2023-04-27T19:03:45.402Z,2.73
2023-04-27T19:06:28.865Z,3.00
2023-04-27T19:09:01.722Z,2.67
2023-04-27T19:11:49.374Z,2.80
2023-04-27T19:14:37.582Z,2.50
2023-04-27T19:17:34.593Z,2.70
2023-04-27T19:20:22.509Z,2.90
2023-04-27T19:23:00.312Z,3.03
2023-04-27T19:25:49.680Z,2.63
2023-04-27T19:28:23.729Z,2.90
2023-04-27T19:31:06.247Z,2.80
2023-04-27T19:33:37.931Z,2.70
2023-04-27T19:36:34.811Z,2.57
2023-04-27T19:39:16.846Z,2.80
2023-04-27T19:42:08.266Z,2.40
2023-04-27T19:44:43.766Z,2.80
2023-04-27T19:47:30.937Z,2.93
2023-04-27T19:50:06.259Z,3.50
2023-04-27T19:52:36.819Z,2.80
2023-04-27T19:55:29.111Z,3.27
2023-04-27T19:58:18.713Z,2.60
2023-04-27T20:01:06.786Z,3.10
2023-04-27T20:03:59.983Z,2.60
2023-04-27T20:06:41.392Z,2.80
2023-04-27T20:09:29.305Z,2.83
2023-04-27T20:12:51.635Z,3.00
2023-04-27T20:15:31.505Z,2.60
2023-04-27T20:18:15.385Z,2.73
2023-04-27T20:20:53.539Z,2.97
2023-04-27T20:23:29.609Z,3.00
2023-04-27T20:26:07.542Z,3.00
2023-04-27T20:28:52.525Z,2.90
2023-04-27T20:31:42.834Z,2.87
2023-04-27T20:34:32.794Z,2.80
2023-04-27T20:37:04.726Z,2.80
2023-04-27T20:39:48.197Z,2.97
2023-04-27T20:42:41.945Z,3.07
2023-04-27T20:45:53.456Z,3.00
2023-04-27T20:49:01.228Z,3.20
2023-04-27T20:51:40.893Z,3.27
2023-04-27T20:54:13.767Z,3.37
2023-04-27T20:56:54.681Z,3.13
2023-04-27T20:59:29.587Z,2.83
2023-04-27T21:02:22.306Z,2.70
2023-04-27T21:05:06.784Z,2.83
2023-04-27T21:07:41.619Z,3.10
2023-04-27T21:10:24.326Z,3.07
2023-04-27T21:13:06.835Z,3.17
2023-04-27T21:15:39.229Z,2.93
2023-04-27T21:18:50.287Z,3.20
2023-04-27T21:21:33.683Z,3.30
2023-04-27T21:24:26.893Z,3.00
2023-04-27T21:27:08.486Z,3.33
2023-04-27T21:29:50.997Z,2.90
2023-04-27T21:32:40.723Z,3.00
2023-04-27T21:35:16.544Z,2.70
2023-04-27T21:38:09.443Z,3.10
2023-04-27T21:40:42.925Z,3.00
2023-04-27T21:43:19.279Z,3.30
2023-04-27T21:45:53.786Z,3.53
2023-04-27T21:48:34.268Z,3.57
2023-04-27T21:51:35.192Z,3.10
2023-04-27T21:54:15.433Z,2.93
2023-04-27T21:56:46.601Z,3.43
2023-04-27T21:59:20.563Z,3.13
2023-04-27T22:01:56.629Z,3.00
2023-04-27T22:04:45.653Z,3.63
2023-04-27T22:07:21.326Z,3.40
2023-04-27T22:09:58.136Z,3.20
2023-04-27T22:12:30.406Z,3.10
2023-04-27T22:15:27.572Z,3.53
2023-04-27T22:18:07.017Z,3.63
2023-04-27T22:20:39.309Z,3.50
2023-04-27T22:23:33.950Z,2.80
2023-04-27T22:26:13.979Z,3.00
2023-04-27T22:28:45.586Z,2.60
2023-04-27T22:31:39.650Z,3.10
2023-04-27T22:34:15.785Z,2.90
2023-04-27T22:37:02.430Z,2.63
2023-04-27T22:39:45.715Z,3.33
2023-04-27T22:42:27.827Z,2.97
2023-04-27T22:45:17.564Z,2.90
2023-04-27T22:48:05.164Z,3.00
2023-04-27T22:50:36.156Z,3.10
2023-04-27T22:53:36.280Z,2.87
2023-04-27T22:56:50.512Z,2.90
2023-04-27T22:59:23.442Z,2.70
2023-04-27T23:02:06.772Z,2.87
2023-04-27T23:04:43.090Z,2.70
2023-04-27T23:07:13.794Z,2.97
2023-04-27T23:09:46.161Z,2.60
2023-04-27T23:12:32.438Z,2.80
2023-04-27T23:15:04.831Z,2.63
2023-04-27T23:17:39.481Z,2.73
2023-04-27T23:23:06.375Z,2.90
2023-04-27T23:25:45.109Z,2.67
2023-04-27T23:28:36.169Z,2.70
2023-04-27T23:31:08.097Z,3.37
2023-04-27T23:33:58.416Z,2.80
2023-04-27T23:36:39.922Z,3.17
2023-04-27T23:39:23.321Z,2.93
2023-04-27T23:41:55.488Z,2.80
2023-04-27T23:44:49.225Z,2.90
2023-04-27T23:47:33.612Z,2.80
2023-04-27T23:50:19.281Z,2.93
2023-04-27T23:52:59.160Z,3.10
2023-04-27T23:55:41.091Z,2.70
2023-04-27T23:58:25.296Z,2.93
